Time;durP1;ratioP1;P1;durP2;ratioP2;P2;SDS_P1;SDS_P2;PMS_P1;PMS_P2;Temp;Humidity;BMP_temperature;BMP_pressure;BME280_temperature;BME280_humidity;BME280_pressure;Samples;Min_cycle;Max_cycle;Signal;HPM_P1;HPM_P2
2022/05/22 00:00:34;;;;;;;2.72;1.67;;;;;;;10.97;86.63;101210.44;4938122;28;20458;-82
2022/05/22 00:03:03;;;;;;;5.22;2.22;;;;;;;10.94;86.51;101216.56;4946396;28;20286;-80
2022/05/22 00:05:30;;;;;;;2.33;1.40;;;;;;;10.91;87.15;101213.91;4931392;28;20091;-82
2022/05/22 00:07:57;;;;;;;4.28;2.20;;;;;;;10.89;87.44;101208.69;4946234;28;20489;-83
2022/05/22 00:10:25;;;;;;;3.42;2.08;;;;;;;10.90;87.69;101207.81;4945738;28;20842;-80
2022/05/22 00:12:52;;;;;;;8.13;2.28;;;;;;;10.91;87.52;101206.97;4941073;28;20664;-82
2022/05/22 00:15:19;;;;;;;10.80;2.08;;;;;;;10.94;87.48;101206.09;4946686;28;20043;-81
2022/05/22 00:17:46;;;;;;;5.88;1.80;;;;;;;10.94;87.87;101208.69;4930696;28;20050;-81
2022/05/22 00:20:14;;;;;;;10.80;2.13;;;;;;;10.95;87.97;101205.22;4943768;28;20468;-82
2022/05/22 00:22:41;;;;;;;7.53;2.25;;;;;;;10.96;88.22;101213.94;4944307;28;20058;-82
2022/05/22 00:25:10;;;;;;;3.67;1.92;;;;;;;10.95;88.35;101201.69;4929808;28;20062;-81
2022/05/22 00:27:37;;;;;;;6.50;2.33;;;;;;;10.92;88.40;101198.22;4932162;28;20439;-81
2022/05/22 00:30:05;;;;;;;5.47;1.98;;;;;;;10.88;88.37;101204.31;4938248;28;20050;-81
2022/05/22 00:32:32;;;;;;;6.95;2.50;;;;;;;10.82;89.23;101206.97;4946007;28;20617;-82
2022/05/22 00:34:58;;;;;;;2.97;2.00;;;;;;;10.75;89.42;101198.25;4932317;29;20063;-82
2022/05/22 00:37:25;;;;;;;7.82;2.30;;;;;;;10.68;89.90;101199.13;4928962;28;20146;-81
2022/05/22 00:39:52;;;;;;;3.65;2.15;;;;;;;10.62;90.44;101193.00;4935828;29;20061;-81
2022/05/22 00:42:23;;;;;;;5.65;2.28;;;;;;;10.54;90.42;101193.00;4941376;28;20051;-81
2022/05/22 00:44:50;;;;;;;8.10;2.33;;;;;;;10.48;91.08;101186.03;4931296;28;20058;-80
2022/05/22 00:47:18;;;;;;;3.90;2.15;;;;;;;10.45;91.79;101183.41;4932902;28;20468;-80
2022/05/22 00:49:48;;;;;;;4.00;2.17;;;;;;;10.42;91.63;101192.13;4959129;28;20156;-81
2022/05/22 00:52:33;;;;;;;2.08;1.85;;;;;;;10.38;92.23;101184.31;4944971;28;20134;-82
2022/05/22 00:55:16;;;;;;;5.68;2.85;;;;;;;10.35;92.34;101193.03;4940950;28;20039;-81
2022/05/22 00:57:53;;;;;;;7.55;2.92;;;;;;;10.34;92.66;101183.38;4928391;29;20043;-81
2022/05/22 01:00:25;;;;;;;7.32;2.47;;;;;;;10.35;92.76;101189.47;4943284;28;20076;-82
2022/05/22 01:05:36;;;;;;;3.60;2.25;;;;;;;10.34;93.10;101198.19;4929368;28;20046;-80
2022/05/22 01:08:04;;;;;;;8.25;2.45;;;;;;;10.34;93.21;101185.09;4927568;28;20104;-82
2022/05/22 01:10:44;;;;;;;7.57;2.72;;;;;;;10.33;93.23;101179.00;4952704;28;20043;-82
2022/05/22 01:13:14;;;;;;;3.85;2.25;;;;;;;10.34;93.28;101190.34;4943020;28;20047;-81
2022/05/22 01:15:41;;;;;;;4.53;2.70;;;;;;;10.33;93.87;101188.63;4932715;28;20062;-81
2022/05/22 01:18:07;;;;;;;4.63;2.67;;;;;;;10.34;93.95;101179.88;4947123;28;20137;-82
2022/05/22 01:20:34;;;;;;;9.52;3.25;;;;;;;10.33;93.82;101180.78;4926970;28;20127;-80
2022/05/22 01:23:03;;;;;;;7.00;2.72;;;;;;;10.33;93.65;101191.25;4930279;28;20051;-80
2022/05/22 01:25:31;;;;;;;3.83;2.75;;;;;;;10.32;94.23;101192.97;4930397;28;20055;-80
2022/05/22 01:28:02;;;;;;;3.10;2.13;;;;;;;10.33;94.56;101201.72;4930294;28;20446;-82
2022/05/22 01:30:32;;;;;;;2.80;2.28;;;;;;;10.32;94.58;101200.81;4940920;28;20519;-82
2022/05/22 01:32:59;;;;;;;5.38;1.88;;;;;;;10.28;94.26;101199.06;4946792;28;20043;-82
2022/05/22 01:35:28;;;;;;;5.10;2.00;;;;;;;10.22;94.63;101199.94;4927526;28;20371;-82
2022/05/22 01:37:56;;;;;;;9.27;2.38;;;;;;;10.15;94.97;101195.56;4927397;28;20039;-81
2022/05/22 01:40:24;;;;;;;8.30;2.55;;;;;;;10.13;95.57;101199.94;4933723;29;20053;-80
2022/05/22 01:42:51;;;;;;;3.90;2.40;;;;;;;10.13;95.95;101206.91;4930577;28;20053;-81
2022/05/22 01:45:25;;;;;;;5.97;2.45;;;;;;;10.10;95.46;101203.41;4933502;28;20063;-82
2022/05/22 01:47:53;;;;;;;3.85;1.88;;;;;;;10.08;95.92;101202.53;4932305;28;20051;-81
2022/05/22 01:50:21;;;;;;;4.32;2.70;;;;;;;10.10;96.19;101197.28;4944112;28;20143;-81
2022/05/22 01:52:48;;;;;;;5.90;2.20;;;;;;;10.13;96.57;101193.81;4929600;28;20059;-81
2022/05/22 01:55:15;;;;;;;4.90;1.48;;;;;;;10.14;95.89;101193.81;4928144;28;20146;-82
2022/05/22 01:57:42;;;;;;;4.75;2.45;;;;;;;10.15;95.78;101190.34;4931538;28;20047;-82
2022/05/22 02:00:17;;;;;;;4.35;2.58;;;;;;;10.15;95.76;101186.84;4946460;28;20058;-82
2022/05/22 02:02:44;;;;;;;4.40;1.58;;;;;;;10.13;96.11;101186.84;4939767;28;20051;-82
2022/05/22 02:05:11;;;;;;;2.42;1.52;;;;;;;10.11;95.29;101185.97;4926665;28;20069;-81
2022/05/22 02:10:26;;;;;;;8.65;2.42;;;;;;;10.10;95.94;101186.84;4930931;28;20249;-80
2022/05/22 02:12:53;;;;;;;4.70;1.95;;;;;;;10.07;96.28;101171.16;4932925;28;20054;-82
2022/05/22 02:15:26;;;;;;;4.47;2.08;;;;;;;10.03;96.09;101166.78;4932613;28;20078;-81
2022/05/22 02:17:53;;;;;;;5.45;4.20;;;;;;;9.99;97.58;101176.38;4946081;28;20043;-82
2022/05/22 02:20:24;;;;;;;4.65;2.92;;;;;;;9.93;97.26;101171.13;4929308;28;20059;-80
2022/05/22 02:22:57;;;;;;;7.68;2.80;;;;;;;9.89;97.63;101166.75;4927548;28;20047;-82
2022/05/22 02:25:39;;;;;;;6.38;2.80;;;;;;;9.86;98.51;101174.59;4927818;28;20134;-80
2022/05/22 02:28:08;;;;;;;3.33;2.40;;;;;;;9.90;98.78;101169.38;4945380;28;20632;-80
2022/05/22 02:30:39;;;;;;;4.95;2.80;;;;;;;9.94;98.47;101167.63;4933055;28;20050;-81
2022/05/22 02:33:06;;;;;;;8.38;3.28;;;;;;;9.99;98.80;101170.28;4932155;28;20130;-81
2022/05/22 02:35:36;;;;;;;5.80;3.08;;;;;;;10.05;98.27;101165.03;4940252;28;20062;-83
2022/05/22 02:38:05;;;;;;;12.30;5.95;;;;;;;10.07;97.71;101161.53;4948877;28;20039;-81
2022/05/22 02:40:34;;;;;;;3.67;2.30;;;;;;;10.09;97.90;101169.41;4947214;28;20050;-81
2022/05/22 02:43:03;;;;;;;5.00;2.15;;;;;;;10.04;97.14;101161.56;4947514;28;20051;-82
2022/05/22 02:45:33;;;;;;;5.70;3.25;;;;;;;10.02;97.39;101159.81;4933802;28;20110;-81
2022/05/22 02:48:00;;;;;;;5.80;2.42;;;;;;;9.98;97.80;101171.13;4933757;29;20110;-81
2022/05/22 02:50:31;;;;;;;6.65;3.15;;;;;;;9.96;97.90;101165.00;4947279;28;20050;-81
2022/05/22 02:52:57;;;;;;;7.63;3.90;;;;;;;9.87;98.00;101169.38;4926732;28;20039;-80
2022/05/22 02:55:25;;;;;;;6.03;3.00;;;;;;;9.80;98.44;101164.97;4938032;28;20051;-81
2022/05/22 02:57:52;;;;;;;9.10;4.30;;;;;;;9.72;98.86;101175.41;4953920;28;20051;-83
2022/05/22 03:00:26;;;;;;;4.20;2.67;;;;;;;9.69;99.07;101175.41;4938720;28;20066;-81
2022/05/22 03:02:53;;;;;;;4.15;2.10;;;;;;;9.68;99.20;101178.03;4937095;28;20059;-81
2022/05/22 03:05:21;;;;;;;8.55;3.05;;;;;;;9.73;99.56;101177.16;4948132;28;20266;-81
2022/05/22 03:07:48;;;;;;;8.20;3.15;;;;;;;9.78;99.10;101177.19;4948395;28;20043;-81
2022/05/22 03:10:19;;;;;;;4.60;2.20;;;;;;;9.82;98.65;101176.31;4942719;28;20058;-81
2022/05/22 03:12:46;;;;;;;8.77;3.08;;;;;;;9.83;98.62;101185.03;4945012;28;20116;-82
2022/05/22 03:15:15;;;;;;;6.63;2.80;;;;;;;9.88;98.63;101185.91;4951359;28;20062;-82
2022/05/22 03:17:42;;;;;;;3.13;2.58;;;;;;;9.90;98.12;101184.19;4946256;28;20043;-81
2022/05/22 03:20:13;;;;;;;4.35;3.70;;;;;;;9.92;98.26;101183.31;4929849;28;20070;-81
2022/05/22 03:22:40;;;;;;;4.47;2.78;;;;;;;9.89;97.70;101188.53;4944883;28;20043;-81
2022/05/22 03:25:07;;;;;;;5.88;2.55;;;;;;;9.89;98.01;101195.50;4946716;28;20043;-82
2022/05/22 03:27:34;;;;;;;4.43;2.10;;;;;;;9.91;98.09;101192.03;4965687;28;20077;-80
2022/05/22 03:30:01;;;;;;;6.65;3.25;;;;;;;9.94;97.86;101189.41;4933220;29;20048;-82
2022/05/22 03:32:28;;;;;;;6.70;2.70;;;;;;;9.98;96.97;101185.06;4947661;28;20681;-80
2022/05/22 03:35:01;;;;;;;8.43;2.13;;;;;;;9.98;97.11;101178.97;4932084;28;20087;-82
2022/05/22 03:37:31;;;;;;;2.70;1.98;;;;;;;9.96;97.03;101165.91;4945569;28;20051;-82
2022/05/22 03:40:00;;;;;;;8.77;1.80;;;;;;;9.93;96.85;101168.50;4944094;28;20509;-82
2022/05/22 03:42:27;;;;;;;3.03;1.80;;;;;;;9.88;96.69;101165.00;4946039;28;20046;-81
2022/05/22 03:44:54;;;;;;;9.50;3.15;;;;;;;9.83;96.85;101167.63;4931252;28;20639;-80
2022/05/22 03:47:20;;;;;;;3.80;2.30;;;;;;;9.74;96.98;101165.84;4928871;28;20054;-81
2022/05/22 03:49:47;;;;;;;4.35;1.85;;;;;;;9.68;97.43;101172.81;4940270;28;20078;-81
2022/05/22 03:52:14;;;;;;;2.05;1.77;;;;;;;9.60;97.98;101170.16;4941804;28;20066;-81
2022/05/22 03:54:41;;;;;;;5.13;1.58;;;;;;;9.55;98.15;101172.75;4949704;28;20542;-81
2022/05/22 03:57:13;;;;;;;5.53;1.83;;;;;;;9.50;98.39;101163.16;4926159;28;20059;-82
2022/05/22 03:59:41;;;;;;;5.22;2.45;;;;;;;9.46;98.52;101166.63;4941717;28;20043;-81
2022/05/22 04:02:09;;;;;;;3.97;2.17;;;;;;;9.46;99.14;101158.78;4930645;28;20051;-81
2022/05/22 04:04:44;;;;;;;4.70;2.10;;;;;;;9.46;98.87;101158.78;4944333;28;20063;-81
2022/05/22 04:07:17;;;;;;;6.57;2.35;;;;;;;9.46;98.92;101161.41;4953998;28;20975;-82
2022/05/22 04:09:46;;;;;;;5.35;2.25;;;;;;;9.44;99.08;101161.41;4941412;28;20138;-81
2022/05/22 04:12:14;;;;;;;2.17;1.48;;;;;;;9.44;98.85;101154.41;4933890;28;20055;-81
2022/05/22 04:14:40;;;;;;;3.45;1.85;;;;;;;9.46;98.92;101156.19;4931893;28;20062;-80
2022/05/22 04:17:07;;;;;;;6.82;1.98;;;;;;;9.50;99.21;101150.94;4930049;28;20070;-80
2022/05/22 04:19:34;;;;;;;8.45;2.20;;;;;;;9.54;99.17;101146.59;4928698;28;20051;-81
2022/05/22 04:22:00;;;;;;;3.60;2.30;;;;;;;9.58;98.15;101143.13;4928826;28;20051;-81
2022/05/22 04:27:14;;;;;;;6.35;2.08;;;;;;;9.68;98.08;101151.88;4916556;28;20146;-82
2022/05/22 04:29:41;;;;;;;7.20;2.40;;;;;;;9.71;97.58;101160.63;4929797;28;20050;-81
2022/05/22 04:32:09;;;;;;;6.10;1.95;;;;;;;9.77;97.70;101165.84;4939487;28;20044;-81
2022/05/22 04:34:37;;;;;;;3.63;2.75;;;;;;;9.83;96.93;101166.72;4941756;28;20050;-82
2022/05/22 04:37:07;;;;;;;4.65;2.25;;;;;;;9.90;96.65;101171.97;4929659;29;20051;-82
2022/05/22 04:39:33;;;;;;;7.30;2.33;;;;;;;9.94;96.22;101165.03;4932534;28;20053;-82
2022/05/22 04:42:00;;;;;;;3.42;1.65;;;;;;;9.98;96.14;101172.00;4928813;28;20157;-82
2022/05/22 04:44:27;;;;;;;7.45;2.05;;;;;;;10.04;95.83;101174.63;4943476;28;20054;-82
2022/05/22 04:46:54;;;;;;;7.07;1.70;;;;;;;10.09;95.77;101166.81;4945602;28;20098;-83
2022/05/22 04:49:21;;;;;;;5.32;1.48;;;;;;;10.19;95.63;101163.28;4922362;28;20042;-82
2022/05/22 04:51:48;;;;;;;2.60;1.63;;;;;;;10.33;94.73;101162.44;4926703;29;20565;-81
2022/05/22 04:54:14;;;;;;;9.23;2.08;;;;;;;10.50;94.20;101157.25;4929081;28;20051;-80
2022/05/22 04:56:41;;;;;;;3.92;2.10;;;;;;;10.70;92.87;101160.72;4942931;28;20043;-82
2022/05/22 04:59:09;;;;;;;8.35;1.67;;;;;;;10.90;91.58;101159.81;4943974;28;20045;-80
2022/05/22 05:01:36;;;;;;;8.77;1.85;;;;;;;11.09;90.52;101171.09;4945130;28;20055;-81
2022/05/22 05:04:02;;;;;;;5.78;1.83;;;;;;;11.24;89.34;101167.59;4926364;28;20051;-80
2022/05/22 05:06:31;;;;;;;4.15;2.10;;;;;;;11.35;88.47;101172.78;4939643;28;20047;-82
2022/05/22 05:08:58;;;;;;;8.55;2.22;;;;;;;11.39;87.03;101170.16;4941814;28;20031;-81
2022/05/22 05:11:25;;;;;;;7.35;2.60;;;;;;;11.36;87.35;101171.91;4924110;28;20053;-82
2022/05/22 05:13:52;;;;;;;4.70;1.85;;;;;;;11.34;87.25;101174.53;4941288;28;20402;-82
2022/05/22 05:16:19;;;;;;;3.28;2.25;;;;;;;11.39;86.84;101166.63;4945808;28;20110;-82
2022/05/22 05:18:49;;;;;;;7.18;1.90;;;;;;;11.41;86.87;101173.63;4927844;29;20059;-82
2022/05/22 05:21:18;;;;;;;4.10;1.75;;;;;;;11.42;86.79;101182.38;4955882;28;20074;-82
2022/05/22 05:23:47;;;;;;;2.53;1.80;;;;;;;11.37;86.80;101177.13;4943870;28;20260;-81
2022/05/22 05:26:13;;;;;;;5.13;2.05;;;;;;;11.34;87.15;101173.66;4938856;28;20047;-81
2022/05/22 05:28:40;;;;;;;4.30;1.92;;;;;;;11.29;87.44;101172.78;4933582;28;20126;-82
2022/05/22 05:31:09;;;;;;;8.88;2.33;;;;;;;11.25;88.10;101179.78;4942238;28;20071;-82
2022/05/22 05:33:37;;;;;;;2.90;2.20;;;;;;;11.22;88.50;101179.81;4940173;28;20047;-81
2022/05/22 05:36:04;;;;;;;4.70;1.95;;;;;;;11.25;88.75;101187.66;4931904;28;20055;-82
2022/05/22 05:38:32;;;;;;;6.82;2.60;;;;;;;11.28;88.66;101185.03;4926693;29;20061;-83
2022/05/22 05:40:59;;;;;;;6.07;2.38;;;;;;;11.30;89.09;101185.88;4914660;28;20506;-81
2022/05/22 05:43:26;;;;;;;4.03;2.47;;;;;;;11.35;88.64;101184.13;4942041;28;20047;-81
2022/05/22 05:45:55;;;;;;;6.47;2.70;;;;;;;11.36;88.67;101183.25;4936527;28;20047;-82
2022/05/22 05:48:21;;;;;;;5.20;2.75;;;;;;;11.38;89.09;101183.22;4946951;28;20068;-82
2022/05/22 05:50:48;;;;;;;5.88;2.90;;;;;;;11.40;88.83;101179.72;4926175;28;20070;-81
2022/05/22 05:53:15;;;;;;;10.77;2.67;;;;;;;11.47;88.74;101182.34;4942863;28;20062;-81
2022/05/22 05:55:41;;;;;;;7.90;2.75;;;;;;;11.55;88.33;101170.94;4945586;28;20046;-81
2022/05/22 05:58:08;;;;;;;10.77;3.00;;;;;;;11.65;87.73;101165.66;4928313;28;20462;-82
2022/05/22 06:00:35;;;;;;;6.95;2.65;;;;;;;11.64;87.18;101167.41;4950726;28;20051;-82
2022/05/22 06:03:02;;;;;;;7.70;4.10;;;;;;;11.60;87.18;101176.16;4927688;28;20083;-82
2022/05/22 06:05:28;;;;;;;6.80;3.60;;;;;;;11.58;87.54;101170.06;4950133;28;20054;-81
2022/05/22 06:07:55;;;;;;;11.93;3.22;;;;;;;11.56;87.90;101174.44;4928708;28;20047;-82
2022/05/22 06:10:22;;;;;;;9.27;3.00;;;;;;;11.56;87.83;101172.69;4945663;28;20051;-81
2022/05/22 06:12:49;;;;;;;6.70;2.75;;;;;;;11.60;88.14;101160.41;4926935;28;20063;-82
2022/05/22 06:15:18;;;;;;;5.63;2.78;;;;;;;11.69;88.01;101156.88;4932708;29;20058;-81
2022/05/22 06:17:47;;;;;;;6.82;3.47;;;;;;;11.78;88.07;101151.56;4933478;28;20499;-82
2022/05/22 06:20:18;;;;;;;5.57;2.58;;;;;;;11.89;87.27;101159.41;4926274;29;20299;-82
2022/05/22 06:22:46;;;;;;;5.82;2.75;;;;;;;11.95;86.06;101156.75;4940525;28;20051;-82
2022/05/22 06:25:17;;;;;;;6.18;2.72;;;;;;;11.96;86.26;101161.13;4946105;28;20058;-82
2022/05/22 06:27:45;;;;;;;9.05;3.58;;;;;;;11.97;86.38;101155.00;4931035;28;20059;-82
2022/05/22 06:30:18;;;;;;;9.60;3.30;;;;;;;11.99;86.38;101147.97;4950436;28;20356;-82
2022/05/22 06:32:45;;;;;;;7.43;3.60;;;;;;;12.07;85.75;101151.44;4945903;28;20055;-81
2022/05/22 06:35:14;;;;;;;5.68;1.90;;;;;;;12.15;85.18;101148.75;4961663;28;20102;-81
2022/05/22 06:37:41;;;;;;;5.30;2.60;;;;;;;12.21;84.93;101146.06;4942540;28;20110;-82
2022/05/22 06:40:08;;;;;;;6.05;2.60;;;;;;;12.33;85.16;101146.84;4946301;28;20047;-81
2022/05/22 06:42:43;;;;;;;8.68;3.00;;;;;;;12.44;82.73;101146.75;4946860;28;20177;-82
2022/05/22 06:45:23;;;;;;;8.07;3.30;;;;;;;12.45;82.35;101143.25;4936938;28;20055;-82
2022/05/22 06:47:50;;;;;;;5.47;2.50;;;;;;;12.43;82.85;101145.91;4932068;28;20048;-81
2022/05/22 06:50:25;;;;;;;8.32;3.28;;;;;;;12.51;82.58;101143.22;4933395;28;20046;-81
2022/05/22 06:52:52;;;;;;;10.93;3.10;;;;;;;12.63;81.28;101139.59;4947650;28;20563;-83
2022/05/22 06:55:20;;;;;;;6.40;2.45;;;;;;;12.68;80.29;101148.28;4959851;28;20713;-82
2022/05/22 06:57:49;;;;;;;10.05;4.05;;;;;;;12.66;80.14;101140.44;4947505;28;20111;-82
2022/05/22 07:00:18;;;;;;;5.13;3.00;;;;;;;12.66;80.10;101139.56;4944522;28;20051;-82
2022/05/22 07:02:45;;;;;;;5.68;3.08;;;;;;;12.63;78.94;101137.81;4945755;28;20046;-82
2022/05/22 07:05:13;;;;;;;10.93;3.20;;;;;;;12.58;78.67;101144.91;4931906;29;20334;-82
2022/05/22 07:07:40;;;;;;;5.28;1.92;;;;;;;12.63;77.52;101137.81;4938570;28;20112;-82
2022/05/22 07:10:08;;;;;;;11.55;3.17;;;;;;;12.83;76.63;101147.28;4937435;29;20074;-81
2022/05/22 07:12:34;;;;;;;7.45;2.65;;;;;;;13.26;75.91;101136.28;4949064;28;20059;-81
2022/05/22 07:15:03;;;;;;;7.10;2.38;;;;;;;13.98;72.67;101133.56;4935124;29;20043;-81
2022/05/22 07:17:30;;;;;;;6.03;2.83;;;;;;;14.77;70.24;101127.88;4938521;28;20069;-83
2022/05/22 07:19:57;;;;;;;6.35;2.28;;;;;;;15.51;68.76;101117.56;4943621;28;20043;-83
2022/05/22 07:22:25;;;;;;;3.90;2.13;;;;;;;15.88;66.39;101124.69;4938300;29;20388;-82
2022/05/22 07:24:53;;;;;;;7.63;2.75;;;;;;;15.80;63.75;101130.13;4928671;28;20055;-81
2022/05/22 07:27:21;;;;;;;5.32;1.85;;;;;;;15.78;64.33;101131.91;4932764;29;20075;-81
2022/05/22 07:29:50;;;;;;;3.83;1.58;;;;;;;15.89;61.96;101131.69;4943028;28;20058;-83
2022/05/22 07:32:16;;;;;;;4.20;1.63;;;;;;;15.64;61.87;101131.38;4947533;28;20051;-83
2022/05/22 07:34:44;;;;;;;2.88;0.88;;;;;;;15.17;60.95;101134.13;4931223;28;20062;-83
2022/05/22 07:37:14;;;;;;;4.80;1.58;;;;;;;15.28;61.19;101131.25;4927618;28;20415;-82
2022/05/22 07:39:41;;;;;;;3.85;1.70;;;;;;;15.73;61.24;101127.66;4931839;28;20054;-83
2022/05/22 07:42:08;;;;;;;6.75;1.70;;;;;;;16.51;59.89;101127.56;4943090;28;20051;-83
2022/05/22 07:44:35;;;;;;;5.22;1.67;;;;;;;17.55;57.13;101116.72;4936111;28;20132;-82
2022/05/22 07:47:02;;;;;;;3.45;2.00;;;;;;;18.45;54.09;101112.94;4934436;28;20047;-82
2022/05/22 07:52:20;;;;;;;5.75;2.00;;;;;;;19.99;50.13;101119.63;4938791;28;20093;-83
2022/05/22 07:54:47;;;;;;;2.67;0.93;;;;;;;20.12;48.11;101119.97;4929084;28;20376;-84
2022/05/22 07:57:17;;;;;;;2.40;1.27;;;;;;;20.49;45.85;101107.78;4945827;28;20050;-83
2022/05/22 07:59:50;;;;;;;2.88;0.70;;;;;;;20.81;44.19;101116.19;4947096;28;20047;-82
2022/05/22 08:02:17;;;;;;;1.95;0.93;;;;;;;20.95;45.10;101112.91;4946022;28;20106;-82
2022/05/22 08:04:44;;;;;;;3.10;0.88;;;;;;;21.44;44.00;101119.56;4947502;28;20812;-82
2022/05/22 08:07:12;;;;;;;3.33;0.93;;;;;;;21.81;41.99;101117.81;4946519;28;20047;-83
2022/05/22 08:09:38;;;;;;;2.42;0.50;;;;;;;21.85;40.98;101121.19;4935585;28;20051;-83
2022/05/22 08:12:07;;;;;;;2.80;0.90;;;;;;;21.91;39.71;101127.06;4948481;28;20071;-83
2022/05/22 08:14:34;;;;;;;2.38;0.73;;;;;;;21.62;40.23;101128.50;4932243;29;20078;-82
2022/05/22 08:17:07;;;;;;;2.97;0.95;;;;;;;21.80;40.41;101138.28;4948545;28;20078;-83
2022/05/22 08:19:39;;;;;;;2.38;0.73;;;;;;;22.59;39.71;101133.53;4933408;28;20139;-83
2022/05/22 08:22:06;;;;;;;2.40;0.82;;;;;;;23.16;38.07;101124.34;4931842;29;20398;-83
2022/05/22 08:24:35;;;;;;;1.25;0.60;;;;;;;23.25;36.47;101131.84;4933143;29;20058;-83
2022/05/22 08:27:02;;;;;;;4.60;1.38;;;;;;;23.51;36.54;101121.53;4936994;28;20074;-82
2022/05/22 08:29:29;;;;;;;4.10;0.98;;;;;;;24.09;35.74;101126.25;4953106;28;20137;-82
2022/05/22 08:31:55;;;;;;;4.47;0.93;;;;;;;24.17;35.55;101124.94;4951024;28;20186;-83
2022/05/22 08:34:23;;;;;;;4.25;0.80;;;;;;;24.19;35.29;101123.03;4949951;28;20066;-83
2022/05/22 08:36:56;;;;;;;2.53;0.90;;;;;;;24.47;34.70;101127.63;4936452;28;20062;-83
2022/05/22 08:39:29;;;;;;;4.70;1.10;;;;;;;24.33;34.76;101128.44;4938489;28;20051;-84
2022/05/22 08:42:08;;;;;;;5.00;1.00;;;;;;;24.48;34.47;101118.59;4947620;28;20058;-84
2022/05/22 08:44:46;;;;;;;3.20;1.25;;;;;;;24.53;34.41;101118.34;4949676;28;20139;-84
2022/05/22 08:47:39;;;;;;;4.45;1.10;;;;;;;25.22;32.62;101110.56;4951758;28;20406;-84
2022/05/22 08:50:13;;;;;;;3.45;1.02;;;;;;;25.19;32.30;101100.91;4953515;28;20051;-84
2022/05/22 08:53:00;;;;;;;2.47;0.68;;;;;;;25.57;32.89;101115.50;4950601;28;20050;-84
2022/05/22 08:58:57;;;;;;;1.60;0.75;;;;;;;24.65;32.22;101112.25;4944809;28;20095;-84
2022/05/22 09:02:15;;;;;;;3.50;1.08;;;;;;;24.24;33.78;101113.78;4954075;28;20259;-84
2022/05/22 09:04:50;;;;;;;2.13;0.93;;;;;;;25.05;32.41;101107.13;4946763;28;20058;-84
2022/05/22 09:07:36;;;;;;;2.92;1.25;;;;;;;24.70;32.28;101109.31;4950175;28;20117;-83
2022/05/22 09:10:11;;;;;;;1.38;0.45;;;;;;;24.37;32.69;101108.56;4936095;28;20039;-84
2022/05/22 09:13:05;;;;;;;1.63;0.65;;;;;;;25.55;30.50;101094.16;4929880;28;20054;-81
2022/05/22 09:15:50;;;;;;;2.50;0.70;;;;;;;26.61;29.21;101093.38;4952315;28;20058;-84
2022/05/22 09:18:45;;;;;;;1.65;0.80;;;;;;;27.34;27.46;101089.09;4951002;28;20097;-84
2022/05/22 09:21:31;;;;;;;2.63;0.67;;;;;;;28.19;26.82;101096.28;4932215;29;20095;-83
2022/05/22 09:24:09;;;;;;;3.30;1.20;;;;;;;28.79;25.68;101087.25;4944826;28;20043;-83
2022/05/22 09:27:09;;;;;;;2.85;1.08;;;;;;;28.68;25.86;101086.28;4934651;28;20146;-83
2022/05/22 09:29:52;;;;;;;1.27;0.50;;;;;;;29.18;26.52;101077.78;4948424;28;20138;-85
2022/05/22 09:33:04;;;;;;;1.70;0.75;;;;;;;28.99;26.14;101078.41;4955323;28;20264;-84
2022/05/22 09:35:46;;;;;;;2.65;0.57;;;;;;;29.21;25.71;101072.13;4949271;28;20107;-83
2022/05/22 09:39:00;;;;;;;3.20;0.98;;;;;;;29.08;25.35;101071.44;4947837;28;20514;-84
2022/05/22 09:41:55;;;;;;;4.22;1.08;;;;;;;29.72;25.31;101063.59;4950458;28;20048;-85
2022/05/22 09:44:49;;;;;;;2.15;0.63;;;;;;;30.34;25.10;101068.19;4952555;28;20126;-83
2022/05/22 09:47:56;;;;;;;4.00;1.15;;;;;;;30.87;23.45;101058.22;4965805;28;20074;-86
2022/05/22 09:51:31;;;;;;;2.22;0.65;;;;;;;30.77;23.02;101060.03;4932519;28;20054;-87
2022/05/22 09:54:59;;;;;;;2.30;0.70;;;;;;;30.99;22.65;101064.41;4931676;28;20063;-84
2022/05/22 09:58:22;;;;;;;3.33;0.93;;;;;;;30.50;23.45;101070.44;4952456;28;20991;-84
2022/05/22 10:00:58;;;;;;;0.60;0.50;;;;;;;29.81;23.60;101068.22;4955904;28;20039;-85
2022/05/22 10:03:52;;;;;;;3.33;0.70;;;;;;;30.69;23.25;101071.56;4950938;28;20047;-84
2022/05/22 10:06:38;;;;;;;3.15;0.73;;;;;;;31.67;22.26;101063.75;4952753;28;20150;-84
2022/05/22 10:09:27;;;;;;;1.98;0.77;;;;;;;32.08;21.38;101074.41;4935919;28;20047;-84
2022/05/22 10:12:21;;;;;;;1.77;0.50;;;;;;;32.15;21.67;101068.28;4934371;29;20043;-85
2022/05/22 10:15:22;;;;;;;3.70;0.90;;;;;;;31.90;21.31;101064.31;4952268;28;20047;-86
2022/05/22 10:18:11;;;;;;;0.55;0.50;;;;;;;30.95;22.42;101062.94;4947421;28;20059;-83
2022/05/22 10:21:04;;;;;;;2.60;1.30;;;;;;;31.34;22.54;101063.97;4947380;28;20061;-85
2022/05/22 10:23:54;;;;;;;2.28;0.65;;;;;;;31.87;22.19;101061.03;4957306;28;20043;-84
2022/05/22 10:26:38;;;;;;;1.52;0.60;;;;;;;30.30;23.28;101055.94;4954082;28;20043;-84
2022/05/22 10:29:38;;;;;;;1.58;0.70;;;;;;;29.26;23.80;101052.06;4955008;28;20087;-83
2022/05/22 10:33:17;;;;;;;2.97;0.80;;;;;;;28.70;24.34;101054.66;4953028;28;20058;-85
2022/05/22 10:36:11;;;;;;;3.10;0.73;;;;;;;29.90;24.15;101051.25;4939838;28;20062;-84
2022/05/22 10:38:49;;;;;;;2.45;0.70;;;;;;;30.82;21.79;101053.25;4940589;28;20299;-85
2022/05/22 10:44:44;;;;;;;1.75;0.73;;;;;;;31.85;21.27;101047.66;4960136;28;20026;-85
2022/05/22 10:47:17;;;;;;;1.80;0.75;;;;;;;32.26;20.74;101040.19;4944579;28;20063;-85
2022/05/22 10:50:49;;;;;;;5.30;1.00;;;;;;;32.98;19.65;101031.50;4949043;28;20067;-85
2022/05/22 10:54:08;;;;;;;3.30;0.90;;;;;;;32.94;19.78;101027.41;4951659;28;20185;-84
2022/05/22 10:56:38;;;;;;;1.95;0.32;;;;;;;33.40;19.91;101036.41;4944607;28;20083;-84
2022/05/22 10:59:30;;;;;;;3.25;0.73;;;;;;;33.39;19.58;101031.13;4977182;28;20055;-85
2022/05/22 11:04:46;;;;;;;0.68;0.55;;;;;;;33.78;19.82;101022.66;4956614;28;20051;-84
2022/05/22 11:07:32;;;;;;;2.45;0.70;;;;;;;33.39;20.20;101025.69;4953243;28;20051;-86
2022/05/22 11:10:30;;;;;;;1.15;0.60;;;;;;;32.84;20.66;101030.16;4944726;28;20051;-84
2022/05/22 11:13:17;;;;;;;0.68;0.50;;;;;;;32.61;19.08;101025.09;4925465;29;20059;-85
2022/05/22 11:15:44;;;;;;;1.63;0.40;;;;;;;32.96;20.15;101022.69;4956954;28;20047;-85
2022/05/22 11:18:35;;;;;;;1.50;0.63;;;;;;;33.54;18.87;101023.31;4950242;28;20043;-84
2022/05/22 11:21:19;;;;;;;2.53;0.63;;;;;;;32.97;19.55;101013.53;4953076;28;20107;-86
2022/05/22 11:24:25;;;;;;;1.88;0.73;;;;;;;32.24;19.89;101012.41;4956472;28;20059;-85
2022/05/22 11:27:11;;;;;;;2.38;0.68;;;;;;;33.24;19.56;101001.78;4969686;28;20044;-85
2022/05/22 11:30:05;;;;;;;2.10;0.82;;;;;;;34.13;18.31;101000.03;4941156;28;20102;-85
2022/05/22 11:32:51;;;;;;;1.23;0.70;;;;;;;34.04;18.74;100995.56;4943308;28;20561;-85
2022/05/22 11:35:38;;;;;;;2.80;1.02;;;;;;;33.51;18.54;100988.34;4956973;28;20055;-85
2022/05/22 11:38:42;;;;;;;1.42;0.80;;;;;;;32.81;19.99;100987.09;4937552;28;20143;-85
2022/05/22 11:41:39;;;;;;;2.47;0.90;;;;;;;33.57;19.08;100994.00;4958841;28;20093;-84
2022/05/22 11:44:43;;;;;;;1.77;0.57;;;;;;;33.73;18.16;100978.84;4947136;28;20143;-84
2022/05/22 11:47:57;;;;;;;1.65;0.45;;;;;;;33.48;18.75;100978.66;4946234;28;20039;-86
2022/05/22 11:50:33;;;;;;;1.92;0.55;;;;;;;33.60;18.70;100974.69;4947051;28;20057;-86
2022/05/22 11:53:33;;;;;;;0.98;0.52;;;;;;;33.36;18.97;100967.16;4939273;28;20078;-85
2022/05/22 11:56:28;;;;;;;0.98;0.57;;;;;;;32.24;20.08;100969.06;4947705;28;20051;-84
2022/05/22 11:59:20;;;;;;;1.33;0.60;;;;;;;32.23;19.91;100972.78;4953102;28;20039;-85
2022/05/22 12:02:24;;;;;;;1.13;0.60;;;;;;;31.38;20.27;100972.56;4949713;28;20148;-83
2022/05/22 12:05:16;;;;;;;1.75;0.50;;;;;;;31.22;21.10;100973.13;4932999;29;20167;-85
2022/05/22 12:08:05;;;;;;;1.77;0.50;;;;;;;31.16;20.83;100969.13;4946505;28;20033;-85
2022/05/22 12:10:40;;;;;;;1.50;0.40;;;;;;;31.17;21.31;100969.97;4965978;28;20203;-83
2022/05/22 12:13:34;;;;;;;1.38;0.82;;;;;;;32.35;19.99;100961.75;4932169;28;20047;-84
2022/05/22 12:16:18;;;;;;;1.20;0.68;;;;;;;32.78;19.28;100957.56;4953115;28;20051;-83
2022/05/22 12:18:53;;;;;;;1.08;0.50;;;;;;;31.43;20.33;100962.19;4935032;28;20055;-83
2022/05/22 12:22:01;;;;;;;2.67;0.50;;;;;;;31.99;19.43;100956.97;4942078;28;20067;-86